createdAt,value
2022-12-23T00:04:40.801Z,1004.4976102286707
2022-12-23T00:11:00.480Z,1004.4971807424524
2022-12-23T00:17:23.322Z,1004.4902366074024
2022-12-23T00:29:21.120Z,1004.4376802661392
2022-12-23T00:35:40.708Z,1004.4335579443867
2022-12-23T00:41:59.883Z,1004.4629304934044
2022-12-23T00:48:56.812Z,1004.5725097777758
2022-12-23T01:00:13.180Z,1004.6808606614952
2022-12-23T01:06:33.106Z,1004.6920480419807
2022-12-23T01:12:52.875Z,1004.6598312328359
2022-12-23T01:20:34.565Z,1004.7319038558409
2022-12-23T01:26:53.796Z,1004.7755349226087
2022-12-23T01:33:14.217Z,1004.7870628828144
2022-12-23T01:43:55.663Z,1004.7972444545339
2022-12-23T01:56:23.747Z,1004.8248052641923
2022-12-23T02:08:54.960Z,1004.9211660520912
2022-12-23T02:26:21.403Z,1005.0164228549229
2022-12-23T02:32:41.076Z,1005.0616046305491
2022-12-23T02:42:59.728Z,1005.1263880694538
2022-12-23T02:50:33.303Z,1005.2348781268001
2022-12-23T02:56:56.319Z,1005.3426760773917
2022-12-23T03:03:16.751Z,1005.3169043399989
2022-12-23T03:09:36.910Z,1005.3766769789285
2022-12-23T03:19:43.450Z,1005.4189726859023
2022-12-23T03:26:03.387Z,1005.5012450921532
2022-12-23T03:33:42.479Z,1005.5785225530914
2022-12-23T03:40:01.664Z,1005.6033756233071
2022-12-23T03:46:23.287Z,1005.6560898849245
2022-12-23T03:58:55.619Z,1005.7214492337929
2022-12-23T04:05:15.566Z,1005.6690721604265
2022-12-23T04:14:17.726Z,1005.82042248998
2022-12-23T04:20:37.334Z,1005.8717182458024
2022-12-23T04:26:56.395Z,1005.9875098935618
2022-12-23T04:33:39.934Z,1006.0623245843822
2022-12-23T04:40:00.226Z,1006.1442896027486
2022-12-23T04:52:18.512Z,1006.2501614536295
2022-12-23T04:58:37.797Z,1006.2970031676047
2022-12-23T05:04:58.618Z,1006.3806771108046
2022-12-23T05:14:14.452Z,1006.3783106210365
2022-12-23T05:22:08.039Z,1006.34390012599
2022-12-23T05:28:28.202Z,1006.4935435043515
2022-12-23T05:36:16.326Z,1006.6189507813712
2022-12-23T05:42:37.963Z,1006.6923428164083
2022-12-23T05:56:29.175Z,1006.6324346168898
2022-12-23T06:02:53.828Z,1006.5867298165205
2022-12-23T06:09:19.936Z,1006.6467576382183
2022-12-23T06:20:01.868Z,1006.711454260225
2022-12-23T06:27:28.825Z,1006.7137074335751
2022-12-23T06:33:48.538Z,1006.7843177981019
2022-12-23T06:41:57.259Z,1006.9524693794675
2022-12-23T06:50:26.845Z,1007.0427235916799
2022-12-23T06:56:46.217Z,1007.3034227737887
2022-12-23T07:05:45.163Z,1007.2484124891896
2022-12-23T07:13:32.135Z,1007.2545946397053
2022-12-23T07:21:31.580Z,1007.3398827859925
2022-12-23T07:27:51.301Z,1007.439589995259
2022-12-23T07:34:55.887Z,1007.5141402266875
2022-12-23T07:41:16.078Z,1007.511740538683
2022-12-23T07:47:35.813Z,1007.5869555897951
2022-12-23T07:53:59.557Z,1007.7591474417749
2022-12-23T08:07:30.711Z,1007.9433215599488
2022-12-23T08:13:54.893Z,1008.0242973030097
2022-12-23T08:20:33.567Z,1008.0288331213148
2022-12-23T08:26:56.667Z,1008.1533219727014
2022-12-23T08:39:42.431Z,1008.3750499124749
2022-12-23T08:46:05.166Z,1008.3110605070401
2022-12-23T08:53:47.091Z,1008.3624643683436
2022-12-23T09:01:53.455Z,1008.2919216041615
2022-12-23T09:08:15.824Z,1008.2750443505948
2022-12-23T09:15:51.184Z,1008.0489310516322
2022-12-23T09:31:36.798Z,1008.1347770211345
2022-12-23T09:38:00.726Z,1008.1919460339631
2022-12-23T09:48:39.318Z,1008.3730899750852
2022-12-23T09:56:23.262Z,1008.3646705594439
2022-12-23T10:04:04.019Z,1008.3040297652177
2022-12-23T10:10:29.636Z,1008.2926465110348
2022-12-23T10:16:54.019Z,1008.2168617672951
2022-12-23T10:23:18.519Z,1008.0752842468174
2022-12-23T10:29:39.782Z,1008.0231491916519
2022-12-23T10:41:38.513Z,1008.0720480294648
2022-12-23T10:48:00.208Z,1008.0656193151975
2022-12-23T11:01:27.596Z,1007.7422991444708
2022-12-23T11:07:49.837Z,1007.7289296662155
2022-12-23T11:18:56.858Z,1007.6947092894937
2022-12-23T11:27:36.577Z,1007.588520605726
2022-12-23T11:33:59.429Z,1007.49421896457
2022-12-23T11:46:57.108Z,1007.4676530235138
2022-12-23T12:01:16.139Z,1007.4869721062917
2022-12-23T12:07:47.056Z,1007.460813698839
2022-12-23T12:26:16.322Z,1007.1332871845702
2022-12-23T12:32:40.144Z,1007.0407981660292
2022-12-23T12:44:59.185Z,1006.811436540073
2022-12-23T12:51:23.880Z,1006.6662616614553
2022-12-23T12:57:46.551Z,1006.6787362912514
2022-12-23T13:09:55.668Z,1006.7685338089092
2022-12-23T13:16:20.087Z,1006.7216966576779
2022-12-23T13:22:44.284Z,1006.6808261593907
2022-12-23T13:29:35.006Z,1006.6591636621873
2022-12-23T13:38:33.996Z,1006.5616045878701
2022-12-23T13:44:56.783Z,1006.5050186974719
2022-12-23T13:51:19.498Z,1006.5216309114022
2022-12-23T13:57:46.216Z,1006.4932112495386
2022-12-23T14:09:48.827Z,1006.4353488966251
2022-12-23T14:20:59.460Z,1006.3259070152802
2022-12-23T14:27:29.315Z,1006.3553548644312
2022-12-23T14:39:59.007Z,1006.1629691840906
2022-12-23T14:49:38.501Z,1006.0722352718809
2022-12-23T15:10:54.017Z,1005.8563101713156
2022-12-23T15:19:50.720Z,1005.8143483799013
2022-12-23T15:26:11.933Z,1005.7735170357519
2022-12-23T15:32:32.497Z,1005.7807365431627
2022-12-23T15:38:52.549Z,1005.7478475158563
2022-12-23T15:45:20.260Z,1005.6561386906695
2022-12-23T15:52:09.469Z,1005.5940244961921
2022-12-23T15:58:32.813Z,1005.5370958607044
2022-12-23T16:04:54.639Z,1005.5322865563064
2022-12-23T16:11:20.300Z,1005.512994218226
2022-12-23T16:20:40.119Z,1005.5206783077423
2022-12-23T16:27:00.680Z,1005.4850134217437
2022-12-23T16:33:22.618Z,1005.4715006715976
2022-12-23T16:39:44.280Z,1005.3917287204487
2022-12-23T16:56:09.135Z,1005.2356239574483
2022-12-23T17:06:47.606Z,1005.1440658373537
2022-12-23T17:13:07.473Z,1005.0806870921133
2022-12-23T17:19:29.424Z,1005.0115922870176
2022-12-23T17:25:48.813Z,1004.9570427903836
2022-12-23T17:32:10.567Z,1004.904361592457
2022-12-23T17:38:30.092Z,1004.874009010526
2022-12-23T17:44:51.081Z,1004.8156624817005
2022-12-23T18:06:05.592Z,1004.7430250254318
2022-12-23T18:24:19.165Z,1004.7659938305492
2022-12-23T18:30:39.743Z,1004.7737048862116
2022-12-23T18:37:57.672Z,1004.8081451546047
2022-12-23T18:47:06.725Z,1004.802973138048
2022-12-23T18:53:28.432Z,1004.820546045804
2022-12-23T18:59:49.833Z,1004.8335908569145
2022-12-23T19:11:10.876Z,1004.7883632026337
2022-12-23T19:17:31.679Z,1004.84762260631
2022-12-23T19:23:51.614Z,1004.8289979699438
2022-12-23T19:43:07.607Z,1004.8389829846103
2022-12-23T19:49:27.626Z,1004.9135741181882
2022-12-23T19:55:47.868Z,1004.9458607955576
2022-12-23T20:04:42.184Z,1004.9614357087149
2022-12-23T20:14:45.333Z,1005.0104834822592
2022-12-23T20:21:14.872Z,1004.9862683075436
2022-12-23T20:27:41.127Z,1005.0293928882552
2022-12-23T20:39:48.022Z,1005.0783959513174
2022-12-23T20:46:11.681Z,1005.0786081886987
2022-12-23T20:52:32.215Z,1005.0981492324838
2022-12-23T20:58:52.720Z,1005.1215374257972
2022-12-23T21:12:32.423Z,1005.2298532765361
2022-12-23T21:18:54.864Z,1005.2522183964581
2022-12-23T21:25:30.355Z,1005.2606254015351
2022-12-23T21:31:59.262Z,1005.3101927875473
2022-12-23T21:42:35.548Z,1005.4199414636607
2022-12-23T21:49:10.716Z,1005.4401457618663
2022-12-23T21:57:52.385Z,1005.423715376133
2022-12-23T22:04:34.939Z,1005.5787213830665
2022-12-23T22:11:13.005Z,1005.6337329755112
2022-12-23T22:18:39.984Z,1005.6084168982381
2022-12-23T22:25:48.784Z,1005.6046583362863
2022-12-23T22:32:15.952Z,1005.6167881586009
2022-12-23T22:38:37.413Z,1005.7057450115697
2022-12-23T22:44:57.952Z,1005.7087431250434
2022-12-23T22:51:18.123Z,1005.6855608398191
2022-12-23T22:57:37.568Z,1005.7085797141378
2022-12-23T23:03:57.610Z,1005.7368417613538
2022-12-23T23:14:18.317Z,1005.6946500655946
2022-12-23T23:27:40.499Z,1005.7363913240591
2022-12-23T23:34:00.603Z,1005.7102410886478
2022-12-23T23:55:46.918Z,1005.8032398569417
